Time;durP1;ratioP1;P1;durP2;ratioP2;P2;SDS_P1;SDS_P2;PMS_P1;PMS_P2;Temp;Humidity;BMP_temperature;BMP_pressure;BME280_temperature;BME280_humidity;BME280_pressure;Samples;Min_cycle;Max_cycle;Signal;HPM_P1;HPM_P2
2023/04/16 00:02:18;;;;;;;7.97;4.43;;;8.10;70.90;;;;;;5055651;28;20017;-64
2023/04/16 00:04:44;;;;;;;5.40;3.30;;;8.10;70.80;;;;;;5055969;28;20055;-64
2023/04/16 00:07:10;;;;;;;4.60;3.10;;;8.00;71.00;;;;;;5055948;28;20438;-64
2023/04/16 00:09:36;;;;;;;5.18;3.20;;;7.90;71.10;;;;;;5055636;28;20044;-64
2023/04/16 00:12:03;;;;;;;4.80;3.00;;;7.90;71.20;;;;;;5055814;28;20025;-64
2023/04/16 00:14:29;;;;;;;4.43;3.05;;;7.80;71.50;;;;;;5055570;28;20025;-64
2023/04/16 00:16:55;;;;;;;5.93;3.40;;;7.70;71.40;;;;;;5055792;28;20048;-64
2023/04/16 00:19:21;;;;;;;6.47;3.95;;;7.70;71.50;;;;;;5055890;28;20072;-64
2023/04/16 00:21:46;;;;;;;4.63;3.20;;;7.60;71.60;;;;;;5055488;28;20017;-65
2023/04/16 00:24:12;;;;;;;6.25;3.58;;;7.60;71.60;;;;;;5055195;28;20498;-64
2023/04/16 00:26:39;;;;;;;7.45;3.58;;;7.50;71.80;;;;;;5055604;28;20338;-64
2023/04/16 00:29:05;;;;;;;7.28;3.65;;;7.40;72.00;;;;;;5055293;28;20021;-64
2023/04/16 00:31:32;;;;;;;5.63;3.55;;;7.40;72.10;;;;;;5055381;28;20074;-64
2023/04/16 00:33:59;;;;;;;4.95;3.30;;;7.40;72.30;;;;;;5055265;28;20032;-64
2023/04/16 00:36:26;;;;;;;3.97;3.15;;;7.40;72.40;;;;;;5055241;28;20036;-64
2023/04/16 00:38:53;;;;;;;4.97;3.33;;;7.30;72.60;;;;;;5038073;28;20434;-64
2023/04/16 00:41:19;;;;;;;4.47;3.00;;;7.30;72.50;;;;;;5055150;28;20017;-64
2023/04/16 00:43:45;;;;;;;3.33;2.80;;;7.30;72.60;;;;;;5055437;28;20025;-64
2023/04/16 00:46:11;;;;;;;6.93;3.40;;;7.30;72.60;;;;;;5055404;28;20024;-64
2023/04/16 00:48:38;;;;;;;6.95;3.88;;;7.20;72.60;;;;;;5055352;28;20066;-64
2023/04/16 00:51:05;;;;;;;5.18;3.60;;;7.20;72.70;;;;;;5055158;28;20430;-64
2023/04/16 00:53:31;;;;;;;5.97;4.22;;;7.20;72.70;;;;;;5054374;28;20040;-64
2023/04/16 00:55:58;;;;;;;6.13;4.18;;;7.10;72.70;;;;;;5055064;28;20032;-64
2023/04/16 00:58:24;;;;;;;6.50;3.75;;;7.10;72.80;;;;;;5054973;28;20025;-64
2023/04/16 01:00:50;;;;;;;9.02;4.38;;;7.00;72.90;;;;;;5055313;28;20025;-64
2023/04/16 01:03:16;;;;;;;7.45;3.88;;;7.00;72.90;;;;;;5054916;28;20061;-64
2023/04/16 01:05:44;;;;;;;5.75;3.60;;;6.90;72.90;;;;;;5055195;28;20018;-64
2023/04/16 01:08:17;;;;;;;5.93;3.90;;;6.90;72.60;;;;;;5055163;28;20039;-64
2023/04/16 01:10:44;;;;;;;5.07;3.50;;;6.90;72.80;;;;;;5053873;28;20025;-64
2023/04/16 01:13:10;;;;;;;5.88;3.70;;;6.90;73.00;;;;;;5054831;28;20251;-64
2023/04/16 01:15:36;;;;;;;7.18;4.07;;;6.90;73.00;;;;;;5054857;28;20024;-64
2023/04/16 01:18:11;;;;;;;6.00;3.70;;;6.80;73.00;;;;;;5055020;28;20025;-64
2023/04/16 01:20:37;;;;;;;5.72;3.78;;;6.80;73.00;;;;;;5055015;28;20096;-64
2023/04/16 01:23:03;;;;;;;6.93;4.20;;;6.80;73.30;;;;;;5054768;28;20081;-64
2023/04/16 01:25:29;;;;;;;6.85;4.18;;;6.80;73.10;;;;;;5055014;28;20342;-64
2023/04/16 01:27:56;;;;;;;8.77;4.35;;;6.70;73.50;;;;;;5054682;28;20482;-64
2023/04/16 01:30:22;;;;;;;9.02;4.65;;;6.70;73.40;;;;;;5054874;28;20068;-64
2023/04/16 01:32:48;;;;;;;7.18;3.70;;;6.60;73.60;;;;;;5054957;28;20053;-64
2023/04/16 01:35:14;;;;;;;5.70;4.00;;;6.60;73.60;;;;;;5054926;28;20052;-64
2023/04/16 01:37:40;;;;;;;7.53;4.15;;;6.60;73.70;;;;;;5057333;28;20158;-64
2023/04/16 01:40:06;;;;;;;6.10;3.97;;;6.60;73.50;;;;;;5058421;28;20108;-64
2023/04/16 01:42:32;;;;;;;7.32;3.83;;;6.50;73.80;;;;;;5058242;28;20037;-64
2023/04/16 01:44:58;;;;;;;6.80;3.55;;;6.50;73.80;;;;;;5058579;28;20068;-64
2023/04/16 01:47:23;;;;;;;5.00;3.50;;;6.50;73.70;;;;;;5058781;28;20021;-64
2023/04/16 01:49:50;;;;;;;6.43;4.03;;;6.50;73.80;;;;;;5058764;28;20029;-64
2023/04/16 01:52:16;;;;;;;8.18;4.25;;;6.50;73.80;;;;;;5058161;28;20120;-64
2023/04/16 01:54:42;;;;;;;8.90;5.15;;;6.50;73.80;;;;;;5058429;28;20112;-64
2023/04/16 01:57:08;;;;;;;6.53;4.20;;;6.40;73.70;;;;;;5058628;28;20056;-64
2023/04/16 01:59:34;;;;;;;6.13;4.05;;;6.40;73.80;;;;;;5057400;28;20025;-64
2023/04/16 02:02:10;;;;;;;6.05;4.10;;;6.40;73.90;;;;;;5057973;28;20036;-64
2023/04/16 02:04:41;;;;;;;6.95;4.05;;;6.40;73.70;;;;;;5058029;28;20040;-65
2023/04/16 02:07:07;;;;;;;7.15;4.40;;;6.40;73.80;;;;;;5057922;28;20032;-64
2023/04/16 02:09:35;;;;;;;6.38;3.88;;;6.30;73.90;;;;;;5057836;28;20151;-64
2023/04/16 02:12:02;;;;;;;6.95;3.75;;;6.30;73.70;;;;;;5058032;28;20040;-64
2023/04/16 02:14:28;;;;;;;8.85;4.43;;;6.30;73.90;;;;;;5057755;28;20064;-64
2023/04/16 02:16:54;;;;;;;8.73;4.63;;;6.30;73.90;;;;;;5058245;28;20104;-64
2023/04/16 02:19:20;;;;;;;7.20;4.80;;;6.30;74.10;;;;;;5057916;28;20021;-64
2023/04/16 02:21:47;;;;;;;7.60;4.18;;;6.20;74.10;;;;;;5057547;28;20048;-64
2023/04/16 02:24:13;;;;;;;5.75;4.03;;;6.20;74.10;;;;;;5057602;28;20339;-64
2023/04/16 02:26:39;;;;;;;6.80;4.45;;;6.20;74.10;;;;;;5057818;28;20028;-64
2023/04/16 02:29:05;;;;;;;9.27;5.13;;;6.20;74.20;;;;;;5056537;28;20358;-64
2023/04/16 02:31:31;;;;;;;7.22;4.35;;;6.10;74.00;;;;;;5056466;28;20033;-64
2023/04/16 02:33:57;;;;;;;6.75;4.00;;;6.10;74.10;;;;;;5057449;28;20051;-64
2023/04/16 02:36:24;;;;;;;8.60;5.10;;;6.10;74.10;;;;;;5057648;28;20033;-64
2023/04/16 02:38:50;;;;;;;6.72;4.20;;;6.10;74.10;;;;;;5056387;28;20029;-64
2023/04/16 02:41:16;;;;;;;9.35;5.00;;;6.10;74.20;;;;;;5057511;28;20033;-64
2023/04/16 02:43:42;;;;;;;9.23;4.88;;;6.10;74.40;;;;;;5057513;28;20025;-64
2023/04/16 02:46:08;;;;;;;9.15;4.93;;;6.00;74.30;;;;;;5057213;28;20338;-64
2023/04/16 02:48:34;;;;;;;9.10;4.93;;;5.90;74.30;;;;;;5056688;28;20072;-64
2023/04/16 02:51:00;;;;;;;8.35;4.80;;;5.90;74.30;;;;;;5057229;28;20048;-64
2023/04/16 02:53:26;;;;;;;7.43;4.60;;;5.90;74.40;;;;;;5057110;28;20068;-64
2023/04/16 02:55:53;;;;;;;6.70;4.10;;;5.90;74.60;;;;;;5057254;28;20122;-64
2023/04/16 02:58:20;;;;;;;6.93;4.60;;;5.80;74.60;;;;;;5056903;28;20155;-64
2023/04/16 03:00:46;;;;;;;8.68;4.82;;;5.80;74.60;;;;;;5056901;28;20491;-64
2023/04/16 03:03:13;;;;;;;8.57;5.00;;;5.80;74.80;;;;;;5056859;28;20027;-64
2023/04/16 03:05:39;;;;;;;8.20;5.00;;;5.70;74.80;;;;;;5056488;28;20079;-64
2023/04/16 03:08:05;;;;;;;10.23;5.38;;;5.70;74.80;;;;;;5056826;28;20029;-64
2023/04/16 03:10:31;;;;;;;11.38;5.32;;;5.70;74.80;;;;;;5056943;28;20434;-64
2023/04/16 03:12:58;;;;;;;12.05;5.63;;;5.70;75.00;;;;;;5057248;28;20096;-64
2023/04/16 03:15:24;;;;;;;9.18;5.07;;;5.70;74.70;;;;;;5056672;28;20067;-64
2023/04/16 03:17:50;;;;;;;8.10;4.85;;;5.70;74.70;;;;;;5057056;28;20442;-64
2023/04/16 03:20:16;;;;;;;7.95;4.53;;;5.70;74.80;;;;;;5056834;28;20048;-64
2023/04/16 03:22:42;;;;;;;6.38;4.05;;;5.60;74.80;;;;;;5056701;28;20130;-64
2023/04/16 03:25:08;;;;;;;7.22;4.70;;;5.60;74.70;;;;;;5056518;28;20056;-64
2023/04/16 03:27:34;;;;;;;6.00;4.15;;;5.60;74.80;;;;;;5056680;28;20017;-64
2023/04/16 03:30:00;;;;;;;8.77;4.55;;;5.60;74.80;;;;;;5056567;28;20029;-64
2023/04/16 03:32:26;;;;;;;9.10;5.15;;;5.60;74.80;;;;;;5055382;28;20013;-64
2023/04/16 03:34:52;;;;;;;8.15;5.10;;;5.50;75.10;;;;;;5056777;28;20481;-64
2023/04/16 03:37:18;;;;;;;9.23;5.18;;;5.50;75.70;;;;;;5056132;28;20474;-64
2023/04/16 03:39:44;;;;;;;5.93;4.20;;;5.40;75.90;;;;;;5056118;28;20029;-64
2023/04/16 03:42:10;;;;;;;6.53;4.47;;;5.40;75.70;;;;;;5056311;28;20107;-64
2023/04/16 03:44:36;;;;;;;7.95;4.43;;;5.40;75.60;;;;;;5056097;28;20033;-64
2023/04/16 03:47:02;;;;;;;6.53;4.05;;;5.30;75.40;;;;;;5056292;28;20091;-64
2023/04/16 03:49:28;;;;;;;6.47;4.35;;;5.30;75.50;;;;;;5055960;28;20051;-64
2023/04/16 03:51:54;;;;;;;6.53;3.97;;;5.30;75.90;;;;;;5056403;28;20422;-64
2023/04/16 03:54:20;;;;;;;7.35;4.72;;;5.30;75.80;;;;;;5056443;28;20079;-64
2023/04/16 03:56:46;;;;;;;5.55;4.10;;;5.40;75.60;;;;;;5056369;28;20024;-64
2023/04/16 03:59:12;;;;;;;5.55;3.45;;;5.40;75.90;;;;;;5055213;28;20090;-64
2023/04/16 04:01:38;;;;;;;6.65;3.42;;;5.40;75.70;;;;;;5055707;28;20131;-64
2023/04/16 04:04:04;;;;;;;5.13;3.40;;;5.40;75.60;;;;;;5055776;28;20104;-64
2023/04/16 04:06:30;;;;;;;5.05;3.28;;;5.40;75.50;;;;;;5055673;28;20390;-64
2023/04/16 04:08:56;;;;;;;5.45;3.30;;;5.40;75.50;;;;;;5055913;28;20036;-64
2023/04/16 04:11:22;;;;;;;5.43;3.30;;;5.40;75.40;;;;;;5056048;28;20028;-64
2023/04/16 04:13:48;;;;;;;3.78;3.05;;;5.40;75.30;;;;;;5055799;28;20055;-64
2023/04/16 04:16:14;;;;;;;6.85;3.30;;;5.40;75.30;;;;;;5055493;28;20450;-64
2023/04/16 04:18:40;;;;;;;6.93;3.60;;;5.40;75.30;;;;;;5055651;28;20021;-64
2023/04/16 04:21:07;;;;;;;4.75;3.45;;;5.40;75.30;;;;;;5055716;28;20036;-64
2023/04/16 04:23:33;;;;;;;4.60;3.40;;;5.40;75.30;;;;;;5055706;28;20039;-64
2023/04/16 04:26:02;;;;;;;5.35;3.50;;;5.40;75.40;;;;;;5055653;28;20032;-64
2023/04/16 04:28:32;;;;;;;4.78;3.10;;;5.40;75.30;;;;;;5055629;28;20067;-64
2023/04/16 04:30:58;;;;;;;4.78;3.30;;;5.40;75.10;;;;;;5055535;28;20021;-64
2023/04/16 04:33:27;;;;;;;6.45;3.60;;;5.40;75.10;;;;;;5054341;28;20029;-64
2023/04/16 04:35:54;;;;;;;6.88;3.50;;;5.40;75.10;;;;;;5055493;28;20028;-64
2023/04/16 04:38:24;;;;;;;6.25;3.58;;;5.30;75.10;;;;;;5054977;28;20143;-64
2023/04/16 04:40:52;;;;;;;4.57;3.13;;;5.40;75.10;;;;;;5055041;28;20477;-64
2023/04/16 04:43:19;;;;;;;5.75;3.22;;;5.40;75.10;;;;;;5055415;28;20052;-64
2023/04/16 04:45:46;;;;;;;5.72;3.88;;;5.40;75.20;;;;;;5054556;28;20418;-64
2023/04/16 04:48:12;;;;;;;7.15;3.35;;;5.40;75.10;;;;;;5054469;28;20096;-64
2023/04/16 04:50:39;;;;;;;6.57;4.30;;;5.40;75.20;;;;;;5055293;28;20025;-64
2023/04/16 04:53:08;;;;;;;5.32;3.35;;;5.40;75.00;;;;;;5055317;28;20120;-64
2023/04/16 04:55:38;;;;;;;5.72;3.88;;;5.50;75.10;;;;;;5055271;28;20029;-64
2023/04/16 04:58:06;;;;;;;6.57;3.40;;;5.50;75.00;;;;;;5055201;28;20124;-64
2023/04/16 05:00:32;;;;;;;7.55;4.32;;;5.60;75.10;;;;;;5054899;28;20020;-64
2023/04/16 05:03:03;;;;;;;4.20;3.40;;;5.70;75.00;;;;;;5055247;28;20038;-64
2023/04/16 05:05:29;;;;;;;6.70;4.63;;;5.80;75.00;;;;;;5054047;28;20071;-64
2023/04/16 05:07:55;;;;;;;6.18;3.97;;;5.90;75.00;;;;;;5054911;28;20025;-64
2023/04/16 05:10:21;;;;;;;4.93;3.95;;;6.00;74.80;;;;;;5055647;28;20025;-64
2023/04/16 05:12:47;;;;;;;7.03;4.75;;;6.20;74.90;;;;;;5059219;28;20028;-64
2023/04/16 05:15:13;;;;;;;7.25;4.82;;;6.30;74.70;;;;;;5058906;28;20025;-64
2023/04/16 05:17:40;;;;;;;7.43;4.75;;;6.80;75.10;;;;;;5057945;28;20394;-64
2023/04/16 05:20:07;;;;;;;7.22;4.70;;;7.20;74.90;;;;;;5058806;28;20021;-64
2023/04/16 05:22:33;;;;;;;5.30;3.67;;;7.80;74.10;;;;;;5058079;28;20358;-64
2023/04/16 05:24:59;;;;;;;6.85;4.22;;;8.20;73.80;;;;;;5059246;28;20032;-65
2023/04/16 05:27:25;;;;;;;31.30;12.88;;;9.10;73.80;;;;;;5057684;28;20033;-64
2023/04/16 05:29:51;;;;;;;19.25;8.25;;;10.30;72.00;;;;;;5058635;28;20071;-64
2023/04/16 05:32:16;;;;;;;10.75;5.47;;;11.80;70.70;;;;;;5058565;28;20029;-64
2023/04/16 05:34:42;;;;;;;8.55;4.00;;;13.40;67.40;;;;;;5058572;28;20048;-64
2023/04/16 05:37:08;;;;;;;8.38;4.07;;;14.70;64.50;;;;;;5058496;28;20133;-65
2023/04/16 05:39:34;;;;;;;7.05;3.70;;;15.90;61.40;;;;;;5058455;28;20441;-64
2023/04/16 05:42:01;;;;;;;6.85;3.78;;;16.60;58.90;;;;;;5058907;28;20035;-65
2023/04/16 05:44:27;;;;;;;4.97;3.13;;;17.50;56.80;;;;;;5058395;28;20352;-65
2023/04/16 05:46:53;;;;;;;4.50;3.25;;;18.40;54.80;;;;;;5058900;28;20067;-65
2023/04/16 05:49:19;;;;;;;4.80;3.10;;;19.30;52.80;;;;;;5058594;28;20025;-65
2023/04/16 05:51:45;;;;;;;6.53;3.30;;;20.20;51.00;;;;;;5058736;28;20040;-65
2023/04/16 05:54:11;;;;;;;4.97;3.20;;;21.20;49.30;;;;;;5058232;28;20067;-65
2023/04/16 05:56:36;;;;;;;4.60;3.28;;;22.10;47.50;;;;;;5058451;28;20056;-65
2023/04/16 05:59:03;;;;;;;5.38;3.03;;;22.90;45.80;;;;;;5058326;28;20028;-65
2023/04/16 06:01:29;;;;;;;5.80;3.00;;;23.50;44.60;;;;;;5058002;28;20029;-65
2023/04/16 06:03:54;;;;;;;3.63;2.80;;;24.20;43.20;;;;;;5058323;28;20021;-65
2023/04/16 06:06:20;;;;;;;3.53;2.80;;;25.00;41.90;;;;;;5057977;28;20066;-62
2023/04/16 06:08:47;;;;;;;3.25;2.45;;;26.20;40.60;;;;;;5057263;28;20028;-63
2023/04/16 06:11:13;;;;;;;5.15;2.92;;;27.20;39.20;;;;;;5057792;28;20044;-63
2023/04/16 06:13:38;;;;;;;5.38;2.90;;;28.20;37.70;;;;;;5058053;28;20021;-63
2023/04/16 06:16:05;;;;;;;3.72;2.65;;;29.00;36.60;;;;;;5058099;28;20496;-64
2023/04/16 06:18:31;;;;;;;3.83;2.50;;;29.80;35.60;;;;;;5058251;28;20039;-63
2023/04/16 06:21:00;;;;;;;4.20;2.50;;;30.60;34.70;;;;;;5057884;28;20407;-63
2023/04/16 06:23:26;;;;;;;4.20;2.35;;;31.30;33.70;;;;;;5056747;28;20025;-64
2023/04/16 06:25:52;;;;;;;2.42;2.22;;;31.90;32.40;;;;;;5056942;28;20013;-63
2023/04/16 06:28:17;;;;;;;3.40;2.13;;;32.50;31.20;;;;;;5057546;28;20035;-63
2023/04/16 06:30:44;;;;;;;3.25;2.20;;;32.90;30.60;;;;;;5057419;28;20029;-63
2023/04/16 06:33:09;;;;;;;2.72;2.40;;;33.00;30.60;;;;;;5057757;28;20453;-63
2023/04/16 06:35:36;;;;;;;3.65;2.80;;;32.90;30.50;;;;;;5057466;28;20082;-63
2023/04/16 06:38:01;;;;;;;7.32;4.30;;;32.60;30.60;;;;;;5057180;28;20053;-63
2023/04/16 06:40:27;;;;;;;7.70;4.60;;;32.20;30.80;;;;;;5057239;28;20465;-64
2023/04/16 06:42:53;;;;;;;8.93;4.13;;;31.80;31.10;;;;;;5057262;28;20021;-64
2023/04/16 06:45:19;;;;;;;4.40;3.10;;;31.60;31.20;;;;;;5057196;28;20025;-64
2023/04/16 06:47:46;;;;;;;3.08;2.55;;;31.80;30.90;;;;;;5056214;28;20059;-64
2023/04/16 06:50:12;;;;;;;3.63;2.40;;;32.20;30.50;;;;;;5057416;28;20039;-64
2023/04/16 06:52:39;;;;;;;3.78;2.33;;;32.80;29.80;;;;;;5057083;28;20469;-64
2023/04/16 06:55:07;;;;;;;3.35;2.50;;;33.50;29.10;;;;;;5057304;28;20100;-64
2023/04/16 06:57:33;;;;;;;3.72;2.47;;;34.40;28.20;;;;;;5055945;28;20025;-64
2023/04/16 06:59:59;;;;;;;4.72;2.85;;;34.80;27.20;;;;;;5057244;28;20036;-64
2023/04/16 07:02:25;;;;;;;4.07;2.83;;;35.30;26.70;;;;;;5056036;28;20096;-64
2023/04/16 07:04:51;;;;;;;3.30;2.20;;;35.80;26.10;;;;;;5056882;28;20104;-64
2023/04/16 07:07:17;;;;;;;3.17;2.25;;;36.20;25.50;;;;;;5057103;28;20100;-64
2023/04/16 07:09:43;;;;;;;4.40;2.38;;;36.70;25.00;;;;;;5057018;28;20036;-65
2023/04/16 07:12:10;;;;;;;3.63;2.38;;;37.20;24.60;;;;;;5056677;28;20025;-65
2023/04/16 07:14:36;;;;;;;5.38;2.50;;;37.40;24.30;;;;;;5055691;28;20025;-63
2023/04/16 07:17:02;;;;;;;3.58;2.28;;;36.80;24.60;;;;;;5056897;28;20032;-64
2023/04/16 07:19:31;;;;;;;4.30;2.40;;;35.50;25.40;;;;;;5055565;28;20029;-64
2023/04/16 07:21:58;;;;;;;3.40;2.20;;;33.90;26.60;;;;;;5056793;28;20049;-64
2023/04/16 07:24:24;;;;;;;4.13;2.30;;;32.40;28.00;;;;;;5057057;28;20025;-64
2023/04/16 07:26:50;;;;;;;4.38;2.30;;;31.10;29.30;;;;;;5056433;28;20032;-64
2023/04/16 07:29:16;;;;;;;2.92;1.90;;;30.00;30.40;;;;;;5056412;28;20061;-64
2023/04/16 07:31:43;;;;;;;2.75;2.00;;;29.00;31.40;;;;;;5056822;28;20398;-64
2023/04/16 07:34:09;;;;;;;2.45;2.10;;;28.30;32.40;;;;;;5056315;28;20113;-63
2023/04/16 07:36:35;;;;;;;3.42;2.08;;;27.60;33.20;;;;;;5056069;28;20516;-63
2023/04/16 07:39:01;;;;;;;3.63;2.28;;;27.00;34.10;;;;;;5056862;28;20441;-63
2023/04/16 07:41:31;;;;;;;2.65;2.20;;;26.40;34.30;;;;;;5056492;28;20095;-63
2023/04/16 07:43:57;;;;;;;4.05;2.40;;;25.90;35.10;;;;;;5056065;28;20057;-63
2023/04/16 07:46:23;;;;;;;4.55;2.08;;;25.50;35.60;;;;;;5056557;28;20087;-63
2023/04/16 07:48:49;;;;;;;3.72;2.03;;;25.30;36.10;;;;;;5055137;28;20450;-63
2023/04/16 07:51:15;;;;;;;2.13;1.92;;;25.00;36.50;;;;;;5055878;28;20026;-63
2023/04/16 07:53:42;;;;;;;4.65;2.35;;;24.80;36.80;;;;;;5055908;28;20029;-63
2023/04/16 07:56:08;;;;;;;2.97;2.33;;;24.60;37.20;;;;;;5054829;28;20470;-63
2023/04/16 07:58:34;;;;;;;3.55;1.98;;;24.40;37.40;;;;;;5055456;28;20391;-63
2023/04/16 08:01:01;;;;;;;2.97;1.80;;;24.30;37.70;;;;;;5054703;28;20027;-63
2023/04/16 08:03:27;;;;;;;3.92;1.90;;;24.20;38.00;;;;;;5055764;28;20100;-63
2023/04/16 08:05:53;;;;;;;2.40;1.95;;;23.90;38.10;;;;;;5055923;28;20028;-63
2023/04/16 08:08:19;;;;;;;2.85;1.92;;;23.80;38.40;;;;;;5055668;28;20033;-63
2023/04/16 08:10:45;;;;;;;5.90;2.20;;;23.60;38.50;;;;;;5055493;28;20112;-63
2023/04/16 08:13:11;;;;;;;3.30;2.10;;;23.50;38.90;;;;;;5056094;28;20064;-64
2023/04/16 08:15:37;;;;;;;2.15;1.80;;;23.40;39.20;;;;;;5055525;28;20108;-64
2023/04/16 08:18:04;;;;;;;2.97;1.85;;;23.30;39.20;;;;;;5055415;28;20116;-64
2023/04/16 08:20:30;;;;;;;2.53;2.20;;;23.30;39.40;;;;;;5055333;28;20025;-64
2023/04/16 08:22:56;;;;;;;2.17;1.80;;;23.20;39.10;;;;;;5055455;28;20104;-64
2023/04/16 08:25:23;;;;;;;2.38;1.65;;;23.00;39.20;;;;;;5055413;28;20095;-65
2023/04/16 08:27:49;;;;;;;1.10;1.00;;;22.90;38.80;;;;;;5055382;28;20111;-64
2023/04/16 08:30:15;;;;;;;1.02;0.90;;;22.50;37.70;;;;;;5055635;28;20027;-64
2023/04/16 08:32:42;;;;;;;0.80;0.80;;;22.40;38.00;;;;;;5055297;28;20029;-64
2023/04/16 08:35:09;;;;;;;0.68;0.68;;;22.20;36.50;;;;;;5055303;28;20024;-64
2023/04/16 08:37:35;;;;;;;0.88;0.50;;;21.90;36.80;;;;;;5055065;28;20045;-64
2023/04/16 08:40:01;;;;;;;1.63;0.80;;;21.90;36.90;;;;;;5055456;28;20094;-64
2023/04/16 08:42:39;;;;;;;2.50;1.00;;;21.80;36.80;;;;;;5055137;28;20016;-64
2023/04/16 08:45:25;;;;;;;1.00;1.00;;;21.80;36.80;;;;;;5055022;28;20033;-64
2023/04/16 08:47:52;;;;;;;3.25;1.10;;;21.60;37.00;;;;;;5038511;28;20021;-63
2023/04/16 08:50:23;;;;;;;1.58;1.30;;;21.60;37.70;;;;;;5055115;28;20029;-64
2023/04/16 08:52:59;;;;;;;1.20;1.20;;;21.60;37.60;;;;;;5054181;28;20589;-63
2023/04/16 08:55:47;;;;;;;2.13;1.35;;;21.50;37.80;;;;;;5054466;28;20029;-63
2023/04/16 08:58:21;;;;;;;1.25;1.10;;;21.40;38.00;;;;;;5054397;28;20029;-63
2023/04/16 09:00:47;;;;;;;1.40;1.30;;;21.40;38.20;;;;;;5055403;28;20025;-63
2023/04/16 09:03:14;;;;;;;7.70;2.00;;;21.40;38.30;;;;;;5053980;28;20511;-64
2023/04/16 09:05:41;;;;;;;2.47;1.33;;;21.40;38.40;;;;;;5054888;28;20079;-64
2023/04/16 09:08:07;;;;;;;1.70;1.60;;;21.30;38.50;;;;;;5037477;28;20457;-64
2023/04/16 09:10:34;;;;;;;1.45;1.30;;;21.20;38.70;;;;;;5055127;28;20029;-63
2023/04/16 09:13:00;;;;;;;2.00;1.80;;;21.20;39.00;;;;;;5054814;28;20121;-63
2023/04/16 09:15:26;;;;;;;2.03;1.83;;;21.10;38.30;;;;;;5055040;28;20040;-63
2023/04/16 09:17:53;;;;;;;2.40;1.60;;;21.00;38.60;;;;;;5054681;28;20029;-63
2023/04/16 09:20:19;;;;;;;1.92;1.77;;;20.90;39.10;;;;;;5054806;28;20090;-64
2023/04/16 09:22:45;;;;;;;1.52;1.40;;;20.90;39.10;;;;;;5053582;28;20028;-64
2023/04/16 09:25:12;;;;;;;2.50;1.63;;;20.90;38.70;;;;;;5053797;28;20029;-64
2023/04/16 09:27:38;;;;;;;2.58;1.55;;;20.90;38.50;;;;;;5055288;28;20021;-63
2023/04/16 09:30:21;;;;;;;2.25;1.58;;;20.80;38.70;;;;;;5054867;28;20036;-63
2023/04/16 09:32:48;;;;;;;1.63;1.53;;;20.90;38.50;;;;;;5054927;28;20049;-63
2023/04/16 09:35:15;;;;;;;2.55;1.83;;;20.90;38.90;;;;;;5054846;28;20021;-63
2023/04/16 09:37:41;;;;;;;2.35;1.70;;;20.90;37.80;;;;;;5053392;28;20094;-65
2023/04/16 09:40:07;;;;;;;2.35;1.80;;;20.90;38.10;;;;;;5055099;28;20017;-63
2023/04/16 09:42:36;;;;;;;3.05;1.55;;;20.90;38.40;;;;;;5054508;28;20100;-63
2023/04/16 09:45:02;;;;;;;2.55;1.60;;;21.00;38.70;;;;;;5054514;28;20384;-63
2023/04/16 09:47:42;;;;;;;1.98;1.77;;;21.10;38.60;;;;;;5054756;28;20025;-63
2023/04/16 09:50:12;;;;;;;2.60;2.00;;;21.10;38.60;;;;;;5054523;28;20032;-63
2023/04/16 09:52:38;;;;;;;2.08;1.52;;;21.20;38.70;;;;;;5054725;28;20039;-63
2023/04/16 09:55:05;;;;;;;2.33;1.90;;;21.20;38.30;;;;;;5054732;28;20017;-65
2023/04/16 09:57:31;;;;;;;2.42;1.90;;;21.20;38.60;;;;;;5055690;28;20048;-65
2023/04/16 10:00:08;;;;;;;2.35;1.60;;;21.20;38.70;;;;;;5058323;28;20354;-65
2023/04/16 10:02:37;;;;;;;1.77;1.60;;;21.00;38.60;;;;;;5056987;28;20453;-63
2023/04/16 10:05:03;;;;;;;2.15;1.88;;;21.00;38.60;;;;;;5057870;28;20021;-63
2023/04/16 10:07:33;;;;;;;2.05;1.73;;;20.90;38.70;;;;;;5057954;28;20025;-63
2023/04/16 10:09:59;;;;;;;1.95;1.80;;;21.00;38.70;;;;;;5057840;28;20017;-63
2023/04/16 10:12:26;;;;;;;1.73;1.63;;;21.00;38.90;;;;;;5057717;28;20029;-63
2023/04/16 10:14:52;;;;;;;1.63;1.50;;;21.10;38.50;;;;;;5057746;28;20040;-63
2023/04/16 10:17:18;;;;;;;1.70;1.60;;;21.10;38.50;;;;;;5058296;28;20057;-65
2023/04/16 10:19:45;;;;;;;2.95;1.80;;;21.20;38.10;;;;;;5057927;28;20485;-65
2023/04/16 10:22:11;;;;;;;1.38;1.23;;;21.20;38.20;;;;;;5057877;28;20025;-63
2023/04/16 10:24:37;;;;;;;2.55;1.92;;;21.20;38.20;;;;;;5057911;28;20021;-65
2023/04/16 10:27:04;;;;;;;1.90;1.67;;;21.30;38.30;;;;;;5057564;28;20100;-65
2023/04/16 10:29:31;;;;;;;3.47;1.90;;;21.30;37.90;;;;;;5057976;28;20024;-63
2023/04/16 10:31:58;;;;;;;2.47;1.95;;;21.40;38.10;;;;;;5057360;28;20039;-65
2023/04/16 10:34:25;;;;;;;1.77;1.55;;;21.50;38.30;;;;;;5057407;28;20021;-63
2023/04/16 10:36:52;;;;;;;3.83;1.98;;;21.60;38.50;;;;;;5057305;28;20053;-63
2023/04/16 10:39:21;;;;;;;2.85;1.98;;;21.60;38.70;;;;;;5056208;28;20047;-63
2023/04/16 10:41:48;;;;;;;2.47;2.03;;;21.60;37.20;;;;;;5056177;28;20025;-64
2023/04/16 10:44:17;;;;;;;4.72;1.80;;;21.50;37.40;;;;;;5057464;28;20025;-65
2023/04/16 10:46:48;;;;;;;3.40;1.88;;;21.50;37.50;;;;;;5056162;28;20044;-63
2023/04/16 10:49:19;;;;;;;2.78;2.10;;;21.50;38.00;;;;;;5057133;28;20025;-63
2023/04/16 10:52:11;;;;;;;2.15;1.83;;;21.70;38.10;;;;;;5057218;28;20032;-63
2023/04/16 10:54:38;;;;;;;2.75;1.80;;;21.70;38.00;;;;;;5055606;28;20033;-63
2023/04/16 10:57:09;;;;;;;3.15;2.25;;;21.80;38.40;;;;;;5057271;28;20033;-63
2023/04/16 10:59:36;;;;;;;2.22;1.85;;;21.80;38.30;;;;;;5057466;28;20040;-64
2023/04/16 11:02:13;;;;;;;1.83;1.63;;;21.70;38.30;;;;;;5057180;28;20029;-64
2023/04/16 11:04:43;;;;;;;2.10;1.63;;;21.70;38.40;;;;;;5055943;28;20438;-64
2023/04/16 11:07:15;;;;;;;3.22;1.70;;;21.80;38.40;;;;;;5055783;28;20116;-63
2023/04/16 11:09:54;;;;;;;1.80;1.60;;;21.90;38.30;;;;;;5055471;28;20035;-63
2023/04/16 11:12:26;;;;;;;1.75;1.60;;;21.90;38.30;;;;;;5055655;28;20039;-63
2023/04/16 11:14:57;;;;;;;2.70;1.45;;;22.00;37.70;;;;;;5056556;28;20341;-64
2023/04/16 11:17:37;;;;;;;2.08;1.58;;;21.90;36.90;;;;;;5056958;28;20033;-63
2023/04/16 11:20:14;;;;;;;1.90;1.25;;;21.70;36.90;;;;;;5056762;28;20020;-64
2023/04/16 11:22:41;;;;;;;1.92;1.58;;;21.60;37.30;;;;;;5056541;28;20083;-65
2023/04/16 11:25:07;;;;;;;1.50;1.33;;;21.50;36.90;;;;;;5056750;28;20024;-63
2023/04/16 11:27:34;;;;;;;2.67;1.50;;;21.50;37.10;;;;;;5055791;28;20052;-63
2023/04/16 11:30:05;;;;;;;1.85;1.60;;;21.40;37.50;;;;;;5057054;28;20063;-63
2023/04/16 11:32:32;;;;;;;2.38;1.85;;;21.40;37.80;;;;;;5056557;28;20032;-63
2023/04/16 11:35:02;;;;;;;2.58;1.90;;;21.20;36.70;;;;;;5055273;28;20051;-64
2023/04/16 11:37:36;;;;;;;2.17;1.42;;;21.10;37.70;;;;;;5055960;28;20057;-65
2023/04/16 11:40:05;;;;;;;2.03;1.63;;;21.00;38.00;;;;;;5056315;28;20017;-65
2023/04/16 11:42:33;;;;;;;1.63;1.52;;;21.00;38.10;;;;;;5056095;28;20017;-65
2023/04/16 11:44:59;;;;;;;1.90;1.65;;;20.90;37.70;;;;;;5055800;28;20021;-65
2023/04/16 11:47:26;;;;;;;2.33;1.50;;;20.90;37.80;;;;;;5055802;28;20025;-65
2023/04/16 11:49:52;;;;;;;1.83;1.50;;;20.80;37.50;;;;;;5056052;28;20445;-65
2023/04/16 11:52:31;;;;;;;1.30;1.20;;;20.80;38.10;;;;;;5055985;28;20100;-65
2023/04/16 11:54:58;;;;;;;2.47;1.58;;;20.80;37.80;;;;;;5054991;28;20354;-65
2023/04/16 11:57:25;;;;;;;1.98;1.67;;;20.70;38.40;;;;;;5056459;28;20024;-65
2023/04/16 11:59:51;;;;;;;2.70;1.40;;;20.70;37.80;;;;;;5056048;28;20327;-65
2023/04/16 12:02:17;;;;;;;1.50;1.40;;;20.60;37.70;;;;;;5055871;28;20092;-65
2023/04/16 12:04:43;;;;;;;1.17;1.05;;;20.60;37.70;;;;;;5055785;28;20039;-65
2023/04/16 12:07:12;;;;;;;1.45;1.35;;;20.60;38.10;;;;;;5056239;28;20065;-65
2023/04/16 12:09:42;;;;;;;1.40;1.30;;;20.70;37.90;;;;;;5038863;28;20025;-65
2023/04/16 12:12:37;;;;;;;2.10;1.80;;;20.70;37.70;;;;;;5054747;28;20498;-65
2023/04/16 12:15:04;;;;;;;2.22;1.20;;;20.70;37.50;;;;;;5054907;28;20128;-65
2023/04/16 12:17:34;;;;;;;5.28;1.70;;;20.80;37.20;;;;;;5055538;28;20358;-65
2023/04/16 12:20:07;;;;;;;1.40;1.30;;;20.80;37.00;;;;;;5053867;28;20048;-65
2023/04/16 12:22:35;;;;;;;1.25;1.15;;;20.70;37.70;;;;;;5055970;28;20028;-65
2023/04/16 12:25:02;;;;;;;1.60;1.50;;;20.70;38.30;;;;;;5054457;28;20021;-65
2023/04/16 12:27:51;;;;;;;2.60;1.70;;;20.80;38.50;;;;;;5054464;28;20089;-65
2023/04/16 12:30:21;;;;;;;2.15;1.33;;;20.90;38.90;;;;;;5055918;28;20013;-65
2023/04/16 12:32:49;;;;;;;1.55;1.45;;;20.80;38.60;;;;;;5054702;28;20057;-65
2023/04/16 12:35:31;;;;;;;1.92;1.30;;;20.80;38.80;;;;;;5055546;28;20047;-65
2023/04/16 12:37:58;;;;;;;2.60;1.30;;;20.90;38.80;;;;;;5054993;28;20434;-65
2023/04/16 12:40:26;;;;;;;1.90;1.73;;;20.90;38.50;;;;;;5054223;28;20045;-65
2023/04/16 12:42:52;;;;;;;1.70;1.55;;;20.90;38.50;;;;;;5055156;28;20442;-65
2023/04/16 12:45:18;;;;;;;1.95;1.58;;;20.90;37.90;;;;;;5055195;28;20051;-65
2023/04/16 12:47:44;;;;;;;2.45;1.60;;;20.80;38.00;;;;;;5055675;28;20069;-65
2023/04/16 12:50:10;;;;;;;1.40;1.30;;;20.70;37.70;;;;;;5054927;28;20029;-65
2023/04/16 12:52:36;;;;;;;1.75;1.20;;;20.70;37.80;;;;;;5055765;28;20025;-65